Time;durP1;ratioP1;P1;durP2;ratioP2;P2;SDS_P1;SDS_P2;PMS_P1;PMS_P2;Temp;Humidity;BMP_temperature;BMP_pressure;BME280_temperature;BME280_humidity;BME280_pressure;Samples;Min_cycle;Max_cycle;Signal;HPM_P1;HPM_P2
2022/02/13 00:02:07;;;;;;;12.55;8.30;;;3.00;99.90;;;;;;5098743;28;20200;-84
2022/02/13 00:04:34;;;;;;;13.43;8.65;;;3.00;99.90;;;;;;5097056;28;20712;-83
2022/02/13 00:07:01;;;;;;;12.15;7.88;;;2.90;99.90;;;;;;5098210;28;20199;-84
2022/02/13 00:09:30;;;;;;;14.00;7.78;;;3.00;99.90;;;;;;5098525;28;20569;-84
2022/02/13 00:12:00;;;;;;;14.27;7.47;;;2.90;99.90;;;;;;5099295;28;20211;-83
2022/02/13 00:14:27;;;;;;;12.10;8.40;;;2.90;99.90;;;;;;5098637;28;20250;-84
2022/02/13 00:16:56;;;;;;;14.15;8.40;;;3.00;99.90;;;;;;5112812;28;20252;-83
2022/02/13 00:19:23;;;;;;;12.60;8.73;;;2.80;99.90;;;;;;5099248;28;20208;-84
2022/02/13 00:21:49;;;;;;;18.67;8.60;;;2.80;99.90;;;;;;5098014;28;20205;-83
2022/02/13 00:24:16;;;;;;;16.50;8.95;;;2.70;99.90;;;;;;5098782;28;20295;-83
2022/02/13 00:26:43;;;;;;;13.95;9.13;;;2.80;99.90;;;;;;5098977;28;20591;-83
2022/02/13 00:29:10;;;;;;;12.65;8.68;;;2.80;99.90;;;;;;5099341;28;20220;-83
2022/02/13 00:31:38;;;;;;;14.88;9.15;;;2.80;99.90;;;;;;5100793;28;20287;-83
2022/02/13 00:34:06;;;;;;;13.80;9.25;;;2.70;99.90;;;;;;5099029;28;20556;-83
2022/02/13 00:36:33;;;;;;;13.70;8.00;;;2.70;99.90;;;;;;5098579;28;20204;-83
2022/02/13 00:39:00;;;;;;;18.55;8.05;;;2.60;99.90;;;;;;5099455;28;20277;-84
2022/02/13 00:41:27;;;;;;;12.93;7.93;;;2.80;99.90;;;;;;5102451;28;20324;-83
2022/02/13 00:43:54;;;;;;;13.13;7.53;;;2.60;99.90;;;;;;5103411;28;20211;-84
2022/02/13 00:46:21;;;;;;;13.52;7.38;;;2.80;99.90;;;;;;5098008;28;20292;-83
2022/02/13 00:48:48;;;;;;;14.25;8.70;;;2.80;99.90;;;;;;5098377;28;20247;-84
2022/02/13 00:51:16;;;;;;;10.82;7.88;;;2.90;99.90;;;;;;5098605;28;20302;-84
2022/02/13 00:53:43;;;;;;;13.07;8.43;;;2.90;99.90;;;;;;5099375;28;20296;-83
2022/02/13 00:56:10;;;;;;;11.70;7.40;;;2.80;99.90;;;;;;5098478;28;20289;-84
2022/02/13 00:58:36;;;;;;;9.57;7.38;;;2.80;99.90;;;;;;5099167;28;20566;-83
2022/02/13 01:01:03;;;;;;;11.52;8.20;;;2.60;99.90;;;;;;5098541;28;20215;-83
2022/02/13 01:03:30;;;;;;;12.23;7.65;;;2.50;99.90;;;;;;5098980;28;20199;-84
2022/02/13 01:05:57;;;;;;;13.20;7.60;;;2.60;99.90;;;;;;5098440;28;20235;-83
2022/02/13 01:08:25;;;;;;;10.88;7.70;;;2.70;99.90;;;;;;5097763;28;20255;-83
2022/02/13 01:10:52;;;;;;;11.05;7.97;;;2.60;99.90;;;;;;5098601;28;20243;-83
2022/02/13 01:13:19;;;;;;;9.93;7.70;;;2.70;99.90;;;;;;5097888;28;20205;-83
2022/02/13 01:15:46;;;;;;;11.32;8.00;;;2.80;99.90;;;;;;5099966;28;20227;-83
2022/02/13 01:18:14;;;;;;;11.90;8.07;;;2.90;99.90;;;;;;5106738;28;20215;-83
2022/02/13 01:20:40;;;;;;;11.13;6.97;;;3.00;99.90;;;;;;5103604;28;20216;-84
2022/02/13 01:23:08;;;;;;;16.15;9.02;;;3.00;99.90;;;;;;5101442;28;20222;-83
2022/02/13 01:25:36;;;;;;;16.67;8.43;;;2.60;99.90;;;;;;5101128;28;20217;-84
2022/02/13 01:28:03;;;;;;;15.40;8.35;;;2.70;99.90;;;;;;5100618;28;20224;-84
2022/02/13 01:30:30;;;;;;;11.98;7.57;;;2.80;99.90;;;;;;5104549;28;20197;-83
2022/02/13 01:32:57;;;;;;;11.23;7.53;;;2.60;99.90;;;;;;5101894;28;20209;-83
2022/02/13 01:35:24;;;;;;;15.45;7.45;;;2.80;99.90;;;;;;5102243;28;20315;-82
2022/02/13 01:37:50;;;;;;;13.10;8.05;;;2.70;99.90;;;;;;5102133;28;20204;-83
2022/02/13 01:40:17;;;;;;;11.73;7.63;;;2.60;99.90;;;;;;5104286;28;20653;-83
2022/02/13 01:42:46;;;;;;;12.77;8.18;;;2.60;99.90;;;;;;5111118;28;20228;-83
2022/02/13 01:45:13;;;;;;;10.80;7.97;;;2.90;99.90;;;;;;5105854;28;20244;-83
2022/02/13 01:47:40;;;;;;;12.75;7.00;;;2.90;99.90;;;;;;5104302;28;20215;-82
2022/02/13 01:50:10;;;;;;;10.13;6.75;;;3.00;99.90;;;;;;5103686;28;20276;-83
2022/02/13 01:52:37;;;;;;;11.45;8.32;;;3.20;99.90;;;;;;5114260;28;20239;-83
2022/02/13 01:55:05;;;;;;;14.02;7.10;;;3.10;99.90;;;;;;5108670;28;20248;-83
2022/02/13 01:57:33;;;;;;;10.50;7.40;;;3.20;99.90;;;;;;5106261;28;20290;-82
2022/02/13 02:00:02;;;;;;;15.38;8.25;;;3.40;99.90;;;;;;5105736;28;20228;-83
2022/02/13 02:02:28;;;;;;;14.15;7.18;;;3.20;99.90;;;;;;5103444;28;20633;-84
2022/02/13 02:04:57;;;;;;;17.40;8.00;;;3.30;99.90;;;;;;5102445;28;20327;-83
2022/02/13 02:07:25;;;;;;;9.60;7.00;;;3.20;99.90;;;;;;5101881;28;20610;-82
2022/02/13 02:09:53;;;;;;;11.38;7.13;;;3.10;99.90;;;;;;5100636;28;20293;-83
2022/02/13 02:12:20;;;;;;;15.50;8.45;;;3.00;99.90;;;;;;5100959;28;20239;-83
2022/02/13 02:14:50;;;;;;;11.55;7.72;;;3.30;99.90;;;;;;5100722;28;20232;-83
2022/02/13 02:17:18;;;;;;;13.73;9.05;;;3.20;99.90;;;;;;5100943;28;20207;-83
2022/02/13 02:19:45;;;;;;;11.95;7.80;;;3.30;99.90;;;;;;5101980;28;20208;-83
2022/02/13 02:22:12;;;;;;;13.57;7.80;;;3.20;99.90;;;;;;5099974;28;20189;-83
2022/02/13 02:24:41;;;;;;;13.82;7.75;;;3.10;99.90;;;;;;5101344;28;20252;-83
2022/02/13 02:27:08;;;;;;;13.55;7.93;;;2.80;99.90;;;;;;5100872;28;20222;-83
2022/02/13 02:29:35;;;;;;;13.90;7.60;;;2.90;99.90;;;;;;5100536;28;20228;-83
2022/02/13 02:32:02;;;;;;;16.48;7.43;;;3.00;99.90;;;;;;5100053;28;20205;-84
2022/02/13 02:34:29;;;;;;;12.32;7.40;;;3.10;99.90;;;;;;5100416;28;20221;-83
2022/02/13 02:36:56;;;;;;;13.30;8.57;;;2.80;99.90;;;;;;5101411;28;20236;-83
2022/02/13 02:39:23;;;;;;;11.63;7.13;;;3.20;99.90;;;;;;5100179;28;20208;-83
2022/02/13 02:41:51;;;;;;;9.02;6.05;;;3.00;99.90;;;;;;5101185;28;20197;-84
2022/02/13 02:44:18;;;;;;;14.55;8.05;;;3.00;99.90;;;;;;5100249;28;20263;-83
2022/02/13 02:46:45;;;;;;;13.52;8.50;;;3.20;99.90;;;;;;5100281;28;20212;-83
2022/02/13 02:49:12;;;;;;;10.90;7.65;;;3.00;99.90;;;;;;5099680;28;20315;-84
2022/02/13 02:51:38;;;;;;;11.88;7.65;;;3.40;99.90;;;;;;5100411;28;20225;-83
2022/02/13 02:54:05;;;;;;;11.75;7.65;;;3.40;99.90;;;;;;5104346;28;20201;-83
2022/02/13 02:56:32;;;;;;;10.95;8.40;;;3.20;99.90;;;;;;5100818;28;20606;-84
2022/02/13 02:59:00;;;;;;;11.70;7.50;;;3.20;99.90;;;;;;5100396;28;20311;-83
2022/02/13 03:01:27;;;;;;;12.90;7.60;;;3.30;99.90;;;;;;5100595;28;20291;-82
2022/02/13 03:03:54;;;;;;;10.32;7.22;;;3.40;99.90;;;;;;5100921;28;20205;-83
2022/02/13 03:06:21;;;;;;;14.07;8.10;;;3.20;99.90;;;;;;5102021;28;20220;-81
2022/02/13 03:08:48;;;;;;;10.88;8.00;;;3.40;99.90;;;;;;5107024;28;20262;-82
2022/02/13 03:11:15;;;;;;;12.52;7.30;;;3.30;99.90;;;;;;5104737;28;20213;-83
2022/02/13 03:13:42;;;;;;;10.07;6.57;;;3.20;99.90;;;;;;5099778;28;20237;-83
2022/02/13 03:16:10;;;;;;;11.65;6.80;;;3.40;99.90;;;;;;5101048;28;20232;-83
2022/02/13 03:18:37;;;;;;;12.38;7.53;;;3.40;99.90;;;;;;5100599;28;20235;-82
2022/02/13 03:21:04;;;;;;;9.60;6.88;;;3.50;99.90;;;;;;5101023;28;20209;-83
2022/02/13 03:23:31;;;;;;;12.73;7.30;;;3.40;99.90;;;;;;5099772;28;20401;-82
2022/02/13 03:25:58;;;;;;;9.85;6.65;;;3.30;99.90;;;;;;5101508;28;20247;-82
2022/02/13 03:28:25;;;;;;;11.52;7.05;;;3.50;99.90;;;;;;5100798;28;20221;-82
2022/02/13 03:30:52;;;;;;;14.05;7.35;;;3.50;99.90;;;;;;5101389;28;20288;-81
2022/02/13 03:33:20;;;;;;;10.02;6.43;;;3.50;99.90;;;;;;5101984;28;20197;-84
2022/02/13 03:35:47;;;;;;;11.25;7.30;;;3.40;99.90;;;;;;5099226;28;20224;-84
2022/02/13 03:38:14;;;;;;;9.65;6.68;;;3.50;99.90;;;;;;5099030;28;20211;-84
2022/02/13 03:40:41;;;;;;;10.55;6.88;;;3.50;99.90;;;;;;5099608;28;20302;-82
2022/02/13 03:43:08;;;;;;;13.13;7.95;;;3.40;99.90;;;;;;5099554;28;20571;-82
2022/02/13 03:45:36;;;;;;;11.35;6.50;;;3.30;99.90;;;;;;5099530;28;20226;-83
2022/02/13 03:48:03;;;;;;;11.32;7.40;;;3.50;99.90;;;;;;5099457;28;20215;-83
2022/02/13 03:50:31;;;;;;;9.20;6.00;;;3.50;99.90;;;;;;5099219;28;20672;-82
2022/02/13 03:52:58;;;;;;;10.23;6.72;;;3.60;99.90;;;;;;5102285;28;20216;-82
2022/02/13 03:55:25;;;;;;;9.80;6.63;;;3.40;99.90;;;;;;5106527;28;20228;-83
2022/02/13 03:57:52;;;;;;;14.48;7.40;;;3.50;99.90;;;;;;5100399;28;20669;-83
2022/02/13 04:00:20;;;;;;;12.70;6.90;;;3.60;99.90;;;;;;5099118;28;20197;-84
2022/02/13 04:02:47;;;;;;;8.95;6.03;;;3.60;99.90;;;;;;5099670;28;20212;-82
2022/02/13 04:05:15;;;;;;;10.65;7.07;;;3.50;99.90;;;;;;5098736;28;20229;-84
2022/02/13 04:07:44;;;;;;;12.40;7.03;;;3.50;99.90;;;;;;5098548;28;20213;-82
2022/02/13 04:10:13;;;;;;;10.90;6.50;;;3.60;99.90;;;;;;5098458;28;20227;-82
2022/02/13 04:12:40;;;;;;;11.60;7.63;;;3.80;99.90;;;;;;5100400;28;20205;-83
2022/02/13 04:15:08;;;;;;;10.82;6.35;;;3.80;99.90;;;;;;5099563;28;20259;-82
2022/02/13 04:17:36;;;;;;;11.48;7.40;;;3.80;99.90;;;;;;5098627;28;20208;-83
2022/02/13 04:20:04;;;;;;;11.13;6.38;;;3.80;99.90;;;;;;5099582;28;20640;-82
2022/02/13 04:22:31;;;;;;;10.88;7.43;;;3.80;99.90;;;;;;5099981;28;20205;-82
2022/02/13 04:24:59;;;;;;;9.98;6.57;;;3.50;99.90;;;;;;5103362;28;20230;-83
2022/02/13 04:27:26;;;;;;;10.02;6.47;;;3.60;99.90;;;;;;5100456;28;20243;-81
2022/02/13 04:29:53;;;;;;;9.02;6.15;;;3.90;99.90;;;;;;5101575;28;20268;-82
2022/02/13 04:32:19;;;;;;;9.93;6.20;;;3.80;99.90;;;;;;5103889;28;20665;-82
2022/02/13 04:34:46;;;;;;;9.90;6.43;;;3.80;99.90;;;;;;5099595;28;20229;-82
2022/02/13 04:37:14;;;;;;;8.50;5.80;;;3.90;99.90;;;;;;5098985;28;20236;-82
2022/02/13 04:39:43;;;;;;;8.40;6.30;;;3.60;99.90;;;;;;5098744;28;20205;-83
2022/02/13 04:42:12;;;;;;;7.85;6.55;;;3.70;99.90;;;;;;5099284;28;20258;-83
2022/02/13 04:44:39;;;;;;;12.07;6.63;;;3.80;99.90;;;;;;5099309;28;20225;-83
2022/02/13 04:47:06;;;;;;;11.10;6.20;;;3.50;99.90;;;;;;5099271;28;20204;-83
2022/02/13 04:49:33;;;;;;;8.88;6.10;;;3.50;99.90;;;;;;5101483;28;20224;-83
2022/02/13 04:52:00;;;;;;;7.90;6.10;;;3.50;99.90;;;;;;5102894;28;20198;-83
2022/02/13 04:54:27;;;;;;;8.57;5.68;;;3.70;99.90;;;;;;5102429;28;20224;-83
2022/02/13 04:56:53;;;;;;;10.57;6.22;;;3.70;99.90;;;;;;5105387;28;20291;-83
2022/02/13 04:59:22;;;;;;;11.68;7.03;;;3.60;99.90;;;;;;5105886;28;20291;-83
2022/02/13 05:01:48;;;;;;;10.65;6.35;;;3.50;99.90;;;;;;5102515;28;20260;-83
2022/02/13 05:04:17;;;;;;;10.13;6.40;;;3.60;99.90;;;;;;5101676;28;20292;-83
2022/02/13 05:06:44;;;;;;;8.63;6.43;;;3.40;99.90;;;;;;5138527;22;20221;-87
2022/02/13 05:09:11;;;;;;;10.40;6.63;;;3.60;99.90;;;;;;5097309;28;20221;-87
2022/02/13 05:11:39;;;;;;;9.00;6.25;;;3.50;99.90;;;;;;5092644;28;20215;-86
2022/02/13 05:14:06;;;;;;;8.80;6.20;;;3.50;99.90;;;;;;5087247;28;20218;-88
2022/02/13 05:16:34;;;;;;;10.50;6.50;;;3.30;99.90;;;;;;5099125;28;20297;-86
2022/02/13 05:19:01;;;;;;;10.88;6.85;;;3.30;99.90;;;;;;5105859;28;20299;-88
2022/02/13 05:21:28;;;;;;;13.18;6.10;;;3.20;99.90;;;;;;5104902;28;20638;-85
2022/02/13 05:23:55;;;;;;;9.95;6.93;;;3.00;99.90;;;;;;5106095;28;20232;-88
2022/02/13 05:26:21;;;;;;;11.68;6.70;;;3.20;99.90;;;;;;5107768;28;20229;-86
2022/02/13 05:28:48;;;;;;;11.63;7.32;;;3.50;99.90;;;;;;5108978;28;20216;-87
2022/02/13 05:31:16;;;;;;;8.52;5.63;;;3.30;99.90;;;;;;5108163;28;20239;-87
2022/02/13 05:33:44;;;;;;;10.63;6.68;;;2.90;99.90;;;;;;5114161;28;20264;-86
2022/02/13 05:36:11;;;;;;;13.48;5.78;;;3.30;99.90;;;;;;5117815;28;20276;-89
2022/02/13 05:38:38;;;;;;;10.90;6.68;;;3.20;99.90;;;;;;5106694;28;20249;-89
2022/02/13 05:41:05;;;;;;;11.63;6.72;;;2.70;99.90;;;;;;5112102;28;20244;-87
2022/02/13 05:43:32;;;;;;;9.40;6.10;;;3.20;99.90;;;;;;5105979;28;20258;-88
2022/02/13 05:45:58;;;;;;;11.32;6.30;;;3.10;99.90;;;;;;5104526;28;20229;-88
2022/02/13 05:48:25;;;;;;;10.73;6.45;;;3.00;99.90;;;;;;5108879;28;20231;-87
2022/02/13 05:50:54;;;;;;;8.93;6.78;;;3.10;99.90;;;;;;5106941;28;20311;-86
2022/02/13 05:53:21;;;;;;;9.85;6.35;;;3.20;99.90;;;;;;5116240;28;20204;-85
2022/02/13 05:55:48;;;;;;;11.85;6.45;;;3.40;99.90;;;;;;5117992;28;20228;-87
2022/02/13 05:58:15;;;;;;;9.07;5.88;;;3.10;99.90;;;;;;5115865;28;20201;-87
2022/02/13 06:00:42;;;;;;;9.77;6.45;;;3.20;99.90;;;;;;5111072;28;20204;-86
2022/02/13 06:03:09;;;;;;;8.77;5.70;;;3.20;99.90;;;;;;5114494;28;20211;-88
2022/02/13 06:05:36;;;;;;;10.55;6.63;;;3.10;99.90;;;;;;5107387;28;20236;-87
2022/02/13 06:08:05;;;;;;;11.88;6.50;;;3.10;99.90;;;;;;5116908;28;20205;-87
2022/02/13 06:10:32;;;;;;;9.68;6.03;;;3.20;99.90;;;;;;5116636;28;20213;-87
2022/02/13 06:12:59;;;;;;;9.88;6.10;;;3.30;99.90;;;;;;5116012;28;20232;-88
2022/02/13 06:15:26;;;;;;;10.63;6.25;;;3.40;99.90;;;;;;5111107;28;20272;-88
2022/02/13 06:17:52;;;;;;;13.52;6.00;;;3.20;99.90;;;;;;5114307;28;20275;-89
2022/02/13 06:20:19;;;;;;;9.90;6.05;;;3.40;99.90;;;;;;5111768;28;20212;-88
2022/02/13 06:22:46;;;;;;;9.20;5.47;;;3.40;99.90;;;;;;5113803;28;20209;-89
2022/02/13 06:25:15;;;;;;;12.55;6.20;;;3.50;99.90;;;;;;5106528;28;20232;-89
2022/02/13 06:27:42;;;;;;;8.30;5.53;;;3.40;99.90;;;;;;5105780;28;20290;-89
2022/02/13 06:30:09;;;;;;;11.05;5.22;;;3.40;99.90;;;;;;5104704;28;20315;-89
2022/02/13 06:32:36;;;;;;;9.40;5.50;;;3.50;99.90;;;;;;5106454;28;20209;-89
2022/02/13 06:35:04;;;;;;;9.18;5.32;;;3.20;99.90;;;;;;5106172;28;20272;-88
2022/02/13 06:37:31;;;;;;;7.40;4.68;;;3.60;99.90;;;;;;5106523;28;20284;-90
2022/02/13 06:39:58;;;;;;;6.57;4.53;;;3.60;99.90;;;;;;5116091;28;20220;-89
2022/02/13 06:42:31;;;;;;;11.07;5.45;;;3.60;99.90;;;;;;5112189;28;20205;-90
2022/02/13 06:45:00;;;;;;;8.25;4.90;;;3.80;99.90;;;;;;5107021;28;20197;-89
2022/02/13 06:47:34;;;;;;;8.45;5.60;;;3.70;99.90;;;;;;5110367;28;20200;-89
2022/02/13 06:50:02;;;;;;;10.18;6.20;;;3.80;99.90;;;;;;5110200;28;20222;-88
2022/02/13 06:52:28;;;;;;;8.40;5.10;;;3.40;99.90;;;;;;5108770;28;20225;-89
2022/02/13 06:54:56;;;;;;;13.50;5.93;;;3.90;99.90;;;;;;5106594;28;20200;-87
2022/02/13 06:57:23;;;;;;;9.00;5.38;;;3.90;99.90;;;;;;5110141;28;20239;-88
2022/02/13 06:59:51;;;;;;;11.68;5.35;;;3.80;99.90;;;;;;5117954;28;20204;-88
2022/02/13 07:02:18;;;;;;;9.52;4.88;;;4.00;99.90;;;;;;5110964;28;20300;-88
2022/02/13 07:04:45;;;;;;;11.82;5.63;;;3.80;99.90;;;;;;5109755;28;20223;-87
2022/02/13 07:07:12;;;;;;;11.63;5.00;;;3.90;99.90;;;;;;5102378;28;20228;-88
2022/02/13 07:09:39;;;;;;;7.95;5.50;;;4.00;99.90;;;;;;5102028;28;20291;-87
2022/02/13 07:12:09;;;;;;;7.00;4.63;;;3.90;99.90;;;;;;5103821;28;20208;-87
2022/02/13 07:14:36;;;;;;;10.80;5.65;;;3.80;99.90;;;;;;5111129;28;20209;-87
2022/02/13 07:17:05;;;;;;;7.68;5.05;;;3.60;99.90;;;;;;5111636;28;20227;-88
2022/02/13 07:19:32;;;;;;;9.80;4.75;;;4.00;99.90;;;;;;5105659;28;20315;-89
2022/02/13 07:21:59;;;;;;;8.90;5.50;;;4.00;99.90;;;;;;5102159;28;20201;-88
2022/02/13 07:24:26;;;;;;;9.25;5.28;;;3.80;99.90;;;;;;5101908;28;20268;-87
2022/02/13 07:26:53;;;;;;;9.35;6.18;;;4.20;99.90;;;;;;5102338;28;20726;-89
2022/02/13 07:29:20;;;;;;;10.07;5.55;;;3.90;99.90;;;;;;5102665;28;20223;-87
2022/02/13 07:31:47;;;;;;;11.48;4.82;;;4.10;99.90;;;;;;5115575;28;20212;-88
2022/02/13 07:34:15;;;;;;;8.30;5.10;;;4.20;99.90;;;;;;5102898;28;20205;-88
2022/02/13 07:36:51;;;;;;;8.75;5.47;;;3.70;99.90;;;;;;5103938;28;20338;-88
2022/02/13 07:39:18;;;;;;;9.38;5.03;;;4.00;99.90;;;;;;5102726;28;20193;-88
2022/02/13 07:41:47;;;;;;;11.13;5.45;;;4.20;99.90;;;;;;5107288;28;20240;-89
2022/02/13 07:44:14;;;;;;;8.85;5.25;;;4.00;99.90;;;;;;5107743;28;20219;-87
2022/02/13 07:46:41;;;;;;;8.18;5.28;;;4.20;99.90;;;;;;5116511;28;20232;-89
2022/02/13 07:49:08;;;;;;;7.35;4.70;;;4.30;99.90;;;;;;5102109;28;20272;-88
2022/02/13 07:51:37;;;;;;;10.82;5.90;;;4.10;99.90;;;;;;5106120;28;20292;-88
2022/02/13 07:56:45;;;;;;;14.30;6.03;;;4.60;99.90;;;;;;5101036;28;20239;-86
2022/02/13 07:59:16;;;;;;;10.77;5.22;;;4.40;99.90;;;;;;5101113;28;20228;-86
2022/02/13 08:01:43;;;;;;;12.35;4.88;;;4.80;99.90;;;;;;5102131;28;20245;-85
2022/02/13 08:04:10;;;;;;;9.73;4.95;;;4.80;99.90;;;;;;5103283;28;20223;-87
2022/02/13 08:06:38;;;;;;;8.55;5.15;;;5.10;99.90;;;;;;5106198;28;20713;-88
2022/02/13 08:09:05;;;;;;;13.20;6.32;;;5.20;99.90;;;;;;5103732;28;20276;-88
2022/02/13 08:11:32;;;;;;;8.10;4.82;;;4.90;99.90;;;;;;5104327;28;20281;-89
2022/02/13 08:13:59;;;;;;;9.95;5.00;;;4.90;99.90;;;;;;5104375;28;20289;-90
2022/02/13 08:16:26;;;;;;;9.30;5.43;;;5.40;99.90;;;;;;5107176;28;20262;-89
2022/02/13 08:18:53;;;;;;;7.93;5.22;;;5.10;99.90;;;;;;5109244;28;20210;-90
2022/02/13 08:21:21;;;;;;;7.78;4.88;;;5.30;99.90;;;;;;5108476;28;20204;-89
2022/02/13 08:23:49;;;;;;;10.75;6.88;;;5.70;99.90;;;;;;5115094;28;20202;-87
2022/02/13 08:26:17;;;;;;;11.52;5.70;;;5.50;99.90;;;;;;5116413;28;20217;-88
2022/02/13 08:28:44;;;;;;;9.30;4.28;;;5.80;99.90;;;;;;5113428;28;20210;-89
2022/02/13 08:31:13;;;;;;;11.18;5.30;;;5.90;99.90;;;;;;5115442;28;20201;-88
2022/02/13 08:33:40;;;;;;;9.75;5.70;;;6.00;99.90;;;;;;5119923;28;20222;-87
2022/02/13 08:36:07;;;;;;;7.82;5.13;;;5.60;99.90;;;;;;5111102;28;20253;-88
2022/02/13 08:38:34;;;;;;;10.82;4.90;;;5.80;99.90;;;;;;5106006;28;20234;-88
2022/02/13 08:41:07;;;;;;;8.63;4.97;;;5.90;99.90;;;;;;5108302;28;20213;-89
2022/02/13 08:43:35;;;;;;;7.45;4.95;;;6.30;99.90;;;;;;5108739;28;20238;-88
2022/02/13 08:46:04;;;;;;;10.27;5.93;;;6.40;99.90;;;;;;5108588;28;20303;-88
2022/02/13 08:48:32;;;;;;;10.15;5.60;;;6.40;99.90;;;;;;5108159;28;20206;-87
2022/02/13 08:50:59;;;;;;;9.88;5.90;;;6.50;99.90;;;;;;5108085;28;20222;-89
2022/02/13 08:53:28;;;;;;;8.38;5.05;;;6.40;99.90;;;;;;5107545;28;20232;-90
2022/02/13 08:55:56;;;;;;;8.27;5.22;;;6.70;99.90;;;;;;5106856;28;20703;-89
2022/02/13 08:58:24;;;;;;;10.82;5.60;;;6.80;99.90;;;;;;5107307;28;20211;-88
2022/02/13 09:00:51;;;;;;;9.10;5.20;;;6.90;99.90;;;;;;5118216;28;20191;-89
2022/02/13 09:03:18;;;;;;;11.30;5.95;;;7.00;99.90;;;;;;5108372;28;20207;-88
2022/02/13 09:05:45;;;;;;;12.68;5.38;;;6.60;99.90;;;;;;5107729;28;20242;-88
2022/02/13 09:08:12;;;;;;;9.25;5.40;;;7.20;99.90;;;;;;5116458;28;20225;-88
2022/02/13 09:10:39;;;;;;;12.93;6.60;;;6.90;99.90;;;;;;5119197;28;20235;-88
2022/02/13 09:13:08;;;;;;;10.60;6.05;;;7.40;99.90;;;;;;5113472;28;20568;-86
2022/02/13 09:15:45;;;;;;;8.30;5.65;;;7.40;99.90;;;;;;5110871;28;20235;-87
2022/02/13 09:18:13;;;;;;;8.10;4.70;;;7.10;99.90;;;;;;5109050;28;20204;-89
2022/02/13 09:20:44;;;;;;;10.10;6.25;;;7.50;99.90;;;;;;5106205;28;20213;-89
2022/02/13 09:23:13;;;;;;;7.97;4.93;;;7.40;99.90;;;;;;5104745;28;20238;-88
2022/02/13 09:25:40;;;;;;;11.55;5.47;;;7.70;99.90;;;;;;5108076;28;20301;-88
2022/02/13 09:28:07;;;;;;;10.50;5.80;;;7.80;99.90;;;;;;5109121;28;20243;-88
2022/02/13 09:30:35;;;;;;;8.80;5.88;;;7.80;99.90;;;;;;5111902;28;20890;-88
2022/02/13 09:33:03;;;;;;;14.48;5.78;;;7.90;99.90;;;;;;5116639;28;20219;-87
2022/02/13 09:35:30;;;;;;;15.45;5.97;;;8.00;99.90;;;;;;5119587;28;20215;-88
2022/02/13 09:37:58;;;;;;;9.20;6.10;;;8.00;99.90;;;;;;5118449;28;20212;-90
2022/02/13 09:40:32;;;;;;;10.77;6.30;;;8.10;99.90;;;;;;5118891;28;20434;-88
2022/02/13 09:43:00;;;;;;;8.37;4.83;;;8.20;99.90;;;;;;5112481;28;20444;-88
2022/02/13 09:45:29;;;;;;;12.07;5.95;;;8.30;99.90;;;;;;5111493;28;20501;-89
2022/02/13 09:47:59;;;;;;;10.23;6.20;;;8.30;99.90;;;;;;5113682;28;20291;-89
2022/02/13 09:50:26;;;;;;;12.93;6.33;;;8.50;99.90;;;;;;5119912;28;20448;-88
2022/02/13 09:52:54;;;;;;;10.17;6.20;;;8.50;99.90;;;;;;5110453;28;20452;-88
2022/02/13 09:55:21;;;;;;;11.37;6.90;;;8.60;99.90;;;;;;5113708;28;20492;-87
2022/02/13 09:58:01;;;;;;;9.15;5.70;;;8.70;99.90;;;;;;5118359;28;20442;-88
2022/02/13 10:00:49;;;;;;;9.93;5.97;;;8.70;99.90;;;;;;5112655;28;20192;-88
2022/02/13 10:03:22;;;;;;;13.73;7.70;;;8.80;99.90;;;;;;5112892;28;20211;-87
2022/02/13 10:05:50;;;;;;;12.33;6.80;;;8.90;99.90;;;;;;5117114;28;20463;-87
2022/02/13 10:08:28;;;;;;;12.00;6.13;;;8.90;99.90;;;;;;5112919;28;20476;-87
2022/02/13 10:11:24;;;;;;;11.83;6.37;;;9.00;99.90;;;;;;5111813;28;20498;-88
2022/02/13 10:14:07;;;;;;;12.63;7.27;;;9.00;99.90;;;;;;5081164;28;20458;-90
2022/02/13 10:16:37;;;;;;;12.60;6.50;;;9.10;99.90;;;;;;5112918;28;20474;-88
2022/02/13 10:19:09;;;;;;;11.93;6.13;;;9.10;99.90;;;;;;5111783;28;20441;-88
2022/02/13 10:21:53;;;;;;;14.95;6.75;;;9.30;99.90;;;;;;5111573;28;20423;-88
2022/02/13 10:24:24;;;;;;;10.40;6.30;;;9.30;99.90;;;;;;5110307;28;20246;-89
2022/02/13 10:27:08;;;;;;;12.83;6.27;;;9.50;99.90;;;;;;5113107;28;20481;-88
2022/02/13 10:29:37;;;;;;;11.60;6.70;;;9.50;99.90;;;;;;5110694;28;20446;-88
2022/02/13 10:32:17;;;;;;;11.47;6.90;;;9.70;99.90;;;;;;5111756;28;20566;-88
2022/02/13 10:35:03;;;;;;;10.93;6.63;;;9.70;99.90;;;;;;5112903;28;20418;-88
2022/02/13 10:37:45;;;;;;;12.53;6.87;;;9.70;99.90;;;;;;5114175;28;20473;-87
2022/02/13 10:40:14;;;;;;;14.23;7.90;;;9.70;99.90;;;;;;5116446;28;20756;-87
2022/02/13 10:42:41;;;;;;;13.73;6.50;;;9.80;99.90;;;;;;5115014;28;20418;-87
2022/02/13 10:45:19;;;;;;;13.43;7.40;;;9.80;99.90;;;;;;5113942;28;20436;-87
2022/02/13 10:47:48;;;;;;;14.10;7.53;;;9.90;99.90;;;;;;5118581;28;20450;-88
2022/02/13 10:50:18;;;;;;;13.53;6.80;;;9.90;99.90;;;;;;5118345;28;20427;-88
2022/02/13 10:52:58;;;;;;;13.40;6.70;;;10.00;99.90;;;;;;5117430;28;20574;-88
2022/02/13 10:55:26;;;;;;;9.10;6.23;;;10.10;99.90;;;;;;5112876;28;20466;-89
2022/02/13 10:57:54;;;;;;;15.17;6.90;;;10.20;99.50;;;;;;5116242;28;20439;-88
2022/02/13 11:00:23;;;;;;;10.20;7.07;;;10.30;99.40;;;;;;5116437;28;20450;-88
2022/02/13 11:02:56;;;;;;;16.03;7.13;;;10.20;99.60;;;;;;5115895;28;20450;-88
2022/02/13 11:05:28;;;;;;;9.27;6.00;;;10.20;99.40;;;;;;5119390;28;20474;-86
2022/02/13 11:07:59;;;;;;;12.03;6.60;;;10.20;99.30;;;;;;5131853;22;20490;-85
2022/02/13 11:10:29;;;;;;;14.70;7.50;;;10.20;99.30;;;;;;5079809;28;20454;-85
2022/02/13 11:12:57;;;;;;;10.83;6.07;;;10.20;99.10;;;;;;5079784;28;20493;-85
2022/02/13 11:15:28;;;;;;;9.17;6.03;;;10.40;99.10;;;;;;5081745;28;20530;-84
2022/02/13 11:17:58;;;;;;;10.87;6.27;;;10.40;98.60;;;;;;5111624;28;20432;-85
2022/02/13 11:20:27;;;;;;;11.67;6.93;;;10.40;98.50;;;;;;5102547;28;20934;-83
2022/02/13 11:22:54;;;;;;;9.73;6.33;;;10.50;98.40;;;;;;5100974;28;20454;-84
2022/02/13 11:25:48;;;;;;;9.97;6.17;;;10.50;98.30;;;;;;5108709;28;20445;-83
2022/02/13 11:28:16;;;;;;;11.60;6.90;;;10.50;98.00;;;;;;5106082;28;20561;-84
2022/02/13 11:30:45;;;;;;;10.67;7.33;;;10.70;98.10;;;;;;5101334;28;20439;-82
2022/02/13 11:33:35;;;;;;;12.43;7.03;;;10.80;97.90;;;;;;5101933;28;20834;-81
2022/02/13 11:36:05;;;;;;;12.43;7.00;;;10.90;97.60;;;;;;5101931;28;20962;-83
2022/02/13 11:38:54;;;;;;;14.37;5.27;;;10.90;97.30;;;;;;5099721;28;21001;-83
2022/02/13 11:41:37;;;;;;;7.27;4.20;;;11.10;96.00;;;;;;5099712;28;20902;-84
2022/02/13 11:44:04;;;;;;;10.47;5.27;;;11.10;94.40;;;;;;5099945;28;21043;-84
2022/02/13 11:46:58;;;;;;;8.37;4.80;;;11.10;94.40;;;;;;5099710;28;20394;-84
2022/02/13 11:49:25;;;;;;;11.33;5.03;;;11.20;93.80;;;;;;5098258;28;20803;-84
2022/02/13 11:52:01;;;;;;;6.40;4.07;;;11.30;93.50;;;;;;5100338;28;20485;-83
2022/02/13 11:54:55;;;;;;;11.30;4.83;;;11.50;92.90;;;;;;5100846;28;20434;-83
2022/02/13 11:57:25;;;;;;;6.50;3.93;;;11.40;92.20;;;;;;5110981;28;20467;-83
2022/02/13 12:00:09;;;;;;;11.20;4.17;;;11.40;91.40;;;;;;5099989;28;20437;-83
2022/02/13 12:02:44;;;;;;;7.97;4.53;;;11.40;91.60;;;;;;5100269;28;20911;-83
2022/02/13 12:05:17;;;;;;;7.30;4.10;;;11.40;91.40;;;;;;5099776;28;20498;-83
2022/02/13 12:08:01;;;;;;;6.10;4.00;;;11.50;91.00;;;;;;5101415;28;21051;-84
2022/02/13 12:10:31;;;;;;;7.50;4.23;;;11.50;91.00;;;;;;5104064;28;20418;-84
2022/02/13 12:13:09;;;;;;;8.77;4.27;;;11.40;90.90;;;;;;5099542;28;20495;-84
2022/02/13 12:15:37;;;;;;;6.97;4.57;;;11.40;90.60;;;;;;5099068;28;20925;-84
2022/02/13 12:18:09;;;;;;;7.43;4.30;;;11.50;90.90;;;;;;5098777;28;20442;-84
2022/02/13 12:20:36;;;;;;;9.50;3.93;;;11.60;90.90;;;;;;5099070;28;20938;-84
2022/02/13 12:23:06;;;;;;;6.70;4.07;;;11.70;90.80;;;;;;5098855;28;20422;-83
2022/02/13 12:25:34;;;;;;;8.10;3.50;;;11.70;90.50;;;;;;5100650;28;20552;-84
2022/02/13 12:28:01;;;;;;;6.10;3.43;;;11.70;89.70;;;;;;5103933;28;20463;-84
2022/02/13 12:30:28;;;;;;;8.13;4.20;;;11.70;89.70;;;;;;5108507;28;20981;-84
2022/02/13 12:33:00;;;;;;;7.80;4.20;;;11.80;89.30;;;;;;5099945;28;20486;-85
2022/02/13 12:35:28;;;;;;;6.47;4.10;;;11.80;88.50;;;;;;5101390;28;20443;-83
2022/02/13 12:37:57;;;;;;;7.70;4.40;;;11.80;88.90;;;;;;5106476;28;20469;-83
2022/02/13 12:40:29;;;;;;;8.70;5.07;;;11.80;88.70;;;;;;5100422;28;20486;-83
2022/02/13 12:42:59;;;;;;;8.83;4.10;;;11.90;89.00;;;;;;5101628;28;20405;-83
2022/02/13 12:45:29;;;;;;;12.13;4.43;;;11.80;88.20;;;;;;5101785;28;20475;-83
2022/02/13 12:47:58;;;;;;;8.43;4.10;;;11.90;87.70;;;;;;5101022;28;20497;-83
2022/02/13 12:50:28;;;;;;;7.77;4.57;;;11.80;88.10;;;;;;5101113;28;20510;-83
2022/02/13 12:52:58;;;;;;;8.40;4.43;;;11.90;87.90;;;;;;5102693;28;20445;-84
2022/02/13 12:55:27;;;;;;;10.43;4.37;;;11.80;87.40;;;;;;5101930;28;20513;-84
2022/02/13 12:57:56;;;;;;;9.53;4.37;;;11.80;87.70;;;;;;5107142;28;20466;-84
2022/02/13 13:00:25;;;;;;;10.50;4.37;;;11.80;88.10;;;;;;5112635;28;20435;-83